sensor_id;sensor_type;location;lat;lon;timestamp;pressure;altitude;pressure_sealevel;temperature;humidity
31011;BME280;26395;53.412;19.598;2023-01-25T00:01:21;102569.72;;;-0.34;79.65
31011;BME280;26395;53.412;19.598;2023-01-25T00:16:25;102563.27;;;-0.50;79.92
31011;BME280;26395;53.412;19.598;2023-01-25T00:46:44;102546.96;;;-0.24;80.21
31011;BME280;26395;53.412;19.598;2023-01-25T01:01:48;102542.25;;;-0.15;80.50
31011;BME280;26395;53.412;19.598;2023-01-25T01:16:52;102529.87;;;-0.15;80.45
31011;BME280;26395;53.412;19.598;2023-01-25T01:31:58;102518.08;;;-0.02;80.52
31011;BME280;26395;53.412;19.598;2023-01-25T01:47:02;102500.31;;;-0.20;80.40
31011;BME280;26395;53.412;19.598;2023-01-25T02:02:06;102472.98;;;-0.45;80.90
31011;BME280;26395;53.412;19.598;2023-01-25T02:17:10;102455.27;;;-0.22;80.91
31011;BME280;26395;53.412;19.598;2023-01-25T02:32:14;102437.11;;;-0.10;81.43
31011;BME280;26395;53.412;19.598;2023-01-25T02:47:17;102426.65;;;0.04;81.37
31011;BME280;26395;53.412;19.598;2023-01-25T03:02:21;102409.63;;;-0.16;81.54
31011;BME280;26395;53.412;19.598;2023-01-25T03:17:25;102409.72;;;-0.25;82.02
31011;BME280;26395;53.412;19.598;2023-01-25T03:32:31;102397.02;;;-0.28;82.66
31011;BME280;26395;53.412;19.598;2023-01-25T03:47:43;102384.38;;;-0.19;82.60
31011;BME280;26395;53.412;19.598;2023-01-25T04:02:46;102362.41;;;-0.07;82.48
31011;BME280;26395;53.412;19.598;2023-01-25T04:17:52;102349.03;;;-0.27;82.78
31011;BME280;26395;53.412;19.598;2023-01-25T04:33:03;102341.36;;;-0.18;83.24
31011;BME280;26395;53.412;19.598;2023-01-25T04:48:08;102335.33;;;0.00;83.20
31011;BME280;26395;53.412;19.598;2023-01-25T05:03:13;102314.27;;;0.06;83.11
31011;BME280;26395;53.412;19.598;2023-01-25T05:18:17;102286.06;;;-0.10;83.41
31011;BME280;26395;53.412;19.598;2023-01-25T05:33:23;102284.98;;;-0.05;83.98
31011;BME280;26395;53.412;19.598;2023-01-25T05:48:26;102274.44;;;-0.01;84.52
31011;BME280;26395;53.412;19.598;2023-01-25T06:03:29;102257.98;;;-0.07;84.96
31011;BME280;26395;53.412;19.598;2023-01-25T06:18:34;102254.63;;;0.01;85.32
31011;BME280;26395;53.412;19.598;2023-01-25T06:34:00;102238.35;;;-0.05;85.71
31011;BME280;26395;53.412;19.598;2023-01-25T06:49:07;102240.60;;;-0.05;86.23
31011;BME280;26395;53.412;19.598;2023-01-25T07:04:11;102252.05;;;0.00;86.82
31011;BME280;26395;53.412;19.598;2023-01-25T07:19:14;102245.84;;;0.16;86.31
31011;BME280;26395;53.412;19.598;2023-01-25T07:34:19;102223.84;;;0.12;86.86
31011;BME280;26395;53.412;19.598;2023-01-25T07:49:23;102211.23;;;0.18;86.84
31011;BME280;26395;53.412;19.598;2023-01-25T08:04:27;102217.73;;;0.20;87.72
31011;BME280;26395;53.412;19.598;2023-01-25T08:19:30;102205.85;;;0.32;87.30
31011;BME280;26395;53.412;19.598;2023-01-25T08:34:34;102189.06;;;0.38;87.22
31011;BME280;26395;53.412;19.598;2023-01-25T08:49:37;102174.62;;;0.38;87.20
31011;BME280;26395;53.412;19.598;2023-01-25T09:04:40;102151.10;;;0.44;87.23
31011;BME280;26395;53.412;19.598;2023-01-25T09:19:44;102137.30;;;0.57;87.48
31011;BME280;26395;53.412;19.598;2023-01-25T09:34:47;102130.68;;;0.61;87.25
31011;BME280;26395;53.412;19.598;2023-01-25T10:04:59;102094.05;;;0.96;86.93
31011;BME280;26395;53.412;19.598;2023-01-25T10:35:26;102067.16;;;1.23;87.21
31011;BME280;26395;53.412;19.598;2023-01-25T11:05:53;102026.30;;;1.31;86.27
31011;BME280;26395;53.412;19.598;2023-01-25T11:21:14;102001.16;;;1.30;86.22
31011;BME280;26395;53.412;19.598;2023-01-25T12:38:20;101869.81;;;1.51;86.25
31011;BME280;26395;53.412;19.598;2023-01-25T12:53:30;101844.67;;;1.21;85.98
31011;BME280;26395;53.412;19.598;2023-01-25T13:23:42;101801.89;;;1.30;87.00
31011;BME280;26395;53.412;19.598;2023-01-25T13:38:50;101779.75;;;1.26;87.02
31011;BME280;26395;53.412;19.598;2023-01-25T13:53:56;101763.54;;;1.26;87.22
31011;BME280;26395;53.412;19.598;2023-01-25T14:09:00;101749.75;;;1.19;88.01
31011;BME280;26395;53.412;19.598;2023-01-25T14:24:13;101734.70;;;1.28;88.65
31011;BME280;26395;53.412;19.598;2023-01-25T14:39:27;101716.46;;;1.27;88.45
31011;BME280;26395;53.412;19.598;2023-01-25T14:54:34;101709.96;;;1.19;88.91
31011;BME280;26395;53.412;19.598;2023-01-25T15:09:41;101691.59;;;1.15;89.50
31011;BME280;26395;53.412;19.598;2023-01-25T15:24:45;101680.71;;;1.17;89.49
31011;BME280;26395;53.412;19.598;2023-01-25T15:39:59;101664.98;;;1.25;89.52
31011;BME280;26395;53.412;19.598;2023-01-25T15:55:02;101664.03;;;1.22;89.42
31011;BME280;26395;53.412;19.598;2023-01-25T16:10:17;101648.16;;;1.09;89.71
31011;BME280;26395;53.412;19.598;2023-01-25T16:25:21;101634.45;;;1.13;90.07
31011;BME280;26395;53.412;19.598;2023-01-25T16:40:32;101620.22;;;1.16;89.56
31011;BME280;26395;53.412;19.598;2023-01-25T16:55:38;101610.54;;;1.30;90.35
31011;BME280;26395;53.412;19.598;2023-01-25T17:10:42;101598.31;;;1.42;90.40
31011;BME280;26395;53.412;19.598;2023-01-25T17:25:45;101581.10;;;1.46;90.11
31011;BME280;26395;53.412;19.598;2023-01-25T17:40:48;101570.36;;;1.54;90.67
31011;BME280;26395;53.412;19.598;2023-01-25T17:55:52;101552.27;;;1.54;90.23
31011;BME280;26395;53.412;19.598;2023-01-25T18:10:57;101543.77;;;1.50;90.61
31011;BME280;26395;53.412;19.598;2023-01-25T18:26:01;101529.02;;;1.29;91.30
31011;BME280;26395;53.412;19.598;2023-01-25T18:41:05;101500.13;;;1.33;92.34
31011;BME280;26395;53.412;19.598;2023-01-25T18:56:15;101485.30;;;1.45;92.06
31011;BME280;26395;53.412;19.598;2023-01-25T19:11:22;101457.73;;;1.44;92.12
31011;BME280;26395;53.412;19.598;2023-01-25T19:26:25;101450.63;;;1.40;93.01
31011;BME280;26395;53.412;19.598;2023-01-25T19:41:30;101434.51;;;1.42;92.66
31011;BME280;26395;53.412;19.598;2023-01-25T19:56:39;101416.48;;;1.29;93.19
31011;BME280;26395;53.412;19.598;2023-01-25T20:11:43;101397.40;;;1.21;93.66
31011;BME280;26395;53.412;19.598;2023-01-25T20:26:48;101402.40;;;1.27;94.09
31011;BME280;26395;53.412;19.598;2023-01-25T20:41:55;101390.92;;;1.36;93.50
31011;BME280;26395;53.412;19.598;2023-01-25T20:57:03;101385.45;;;1.13;93.82
31011;BME280;26395;53.412;19.598;2023-01-25T21:12:08;101383.17;;;1.02;94.58
31011;BME280;26395;53.412;19.598;2023-01-25T21:27:11;101368.46;;;0.99;95.55
31011;BME280;26395;53.412;19.598;2023-01-25T21:42:15;101354.04;;;1.19;95.43
31011;BME280;26395;53.412;19.598;2023-01-25T21:57:18;101339.61;;;1.34;94.30
31011;BME280;26395;53.412;19.598;2023-01-25T22:12:22;101324.15;;;1.43;94.02
31011;BME280;26395;53.412;19.598;2023-01-25T22:27:30;101334.35;;;1.42;94.39
31011;BME280;26395;53.412;19.598;2023-01-25T22:42:34;101329.56;;;1.36;94.16
31011;BME280;26395;53.412;19.598;2023-01-25T22:57:38;101298.66;;;1.37;94.07
31011;BME280;26395;53.412;19.598;2023-01-25T23:12:41;101274.58;;;1.41;94.15
31011;BME280;26395;53.412;19.598;2023-01-25T23:28:15;101267.20;;;1.40;94.27
31011;BME280;26395;53.412;19.598;2023-01-25T23:43:18;101251.10;;;1.31;95.32
31011;BME280;26395;53.412;19.598;2023-01-25T23:58:22;101237.23;;;1.39;95.91
